createdAt,value
2022-08-26T00:01:29.198Z,97247.41
2022-08-26T00:04:32.766Z,97255.28
2022-08-26T00:07:35.531Z,97248.25
2022-08-26T00:10:42.249Z,97258.94
2022-08-26T00:13:47.770Z,97258.84
2022-08-26T00:16:52.696Z,97266.25
2022-08-26T00:19:58.082Z,97263.25
2022-08-26T00:23:01.117Z,97268.84
2022-08-26T00:26:06.578Z,97264.91
2022-08-26T00:29:12.256Z,97262.00
2022-08-26T00:32:15.300Z,97260.84
2022-08-26T00:35:19.018Z,97254.88
2022-08-26T00:38:23.033Z,97261.56
2022-08-26T00:41:27.554Z,97266.34
2022-08-26T00:44:30.563Z,97263.13
2022-08-26T00:47:37.722Z,97268.69
2022-08-26T00:50:49.145Z,97268.41
2022-08-26T00:53:56.470Z,97273.47
2022-08-26T00:57:04.038Z,97276.47
2022-08-26T01:00:12.064Z,97285.91
2022-08-26T01:03:17.945Z,97281.19
2022-08-26T01:06:21.352Z,97283.91
2022-08-26T01:09:24.934Z,97289.72
2022-08-26T01:12:32.834Z,97296.44
2022-08-26T01:15:41.002Z,97305.41
2022-08-26T01:18:46.828Z,97304.97
2022-08-26T01:21:57.294Z,97305.41
2022-08-26T01:25:03.531Z,97293.22
2022-08-26T01:28:16.902Z,97294.38
2022-08-26T01:31:23.822Z,97302.75
2022-08-26T01:34:30.341Z,97303.69
2022-08-26T01:37:36.883Z,97324.84
2022-08-26T01:40:44.234Z,97321.56
2022-08-26T01:43:49.022Z,97317.97
2022-08-26T01:51:44.425Z,97315.00
2022-08-26T01:54:50.590Z,97312.66
2022-08-26T01:57:57.162Z,97328.56
2022-08-26T02:01:00.186Z,97326.47
2022-08-26T02:04:14.100Z,97330.41
2022-08-26T02:07:20.174Z,97334.13
2022-08-26T02:10:24.461Z,97332.59
2022-08-26T02:13:32.903Z,97333.91
2022-08-26T02:16:42.246Z,97350.13
2022-08-26T02:19:48.648Z,97346.41
2022-08-26T02:22:51.909Z,97342.22
2022-08-26T02:26:00.953Z,97342.22
2022-08-26T02:29:10.785Z,97327.94
2022-08-26T02:32:14.709Z,97326.19
2022-08-26T02:35:23.718Z,97318.47
2022-08-26T02:38:27.757Z,97320.78
2022-08-26T02:41:30.590Z,97301.97
2022-08-26T02:44:37.473Z,97296.53
2022-08-26T02:47:40.570Z,97290.63
2022-08-26T02:50:43.861Z,97297.84
2022-08-26T02:53:46.633Z,97295.66
2022-08-26T02:56:50.811Z,97311.06
2022-08-26T02:59:54.910Z,97303.06
2022-08-26T03:02:58.130Z,97286.81
2022-08-26T03:06:01.055Z,97272.31
2022-08-26T03:09:05.150Z,97269.41
2022-08-26T03:12:08.341Z,97259.88
2022-08-26T03:15:17.712Z,97261.56
2022-08-26T03:18:20.966Z,97257.94
2022-08-26T03:21:23.877Z,97261.41
2022-08-26T03:24:27.687Z,97260.81
2022-08-26T03:27:30.478Z,97259.31
2022-08-26T03:30:44.687Z,97266.88
2022-08-26T03:33:48.325Z,97278.03
2022-08-26T03:36:53.142Z,97278.03
2022-08-26T03:39:55.962Z,97289.16
2022-08-26T03:42:59.036Z,97285.22
2022-08-26T03:46:07.128Z,97295.19
2022-08-26T03:49:10.052Z,97294.72
2022-08-26T03:52:12.800Z,97288.47
2022-08-26T03:55:16.635Z,97292.50
2022-08-26T03:58:20.919Z,97296.78
2022-08-26T04:01:25.524Z,97296.69
2022-08-26T04:04:28.344Z,97303.84
2022-08-26T04:07:32.051Z,97299.22
2022-08-26T04:10:38.384Z,97302.50
2022-08-26T04:13:41.724Z,97304.47
2022-08-26T04:16:47.304Z,97306.31
2022-08-26T04:19:50.076Z,97303.28
2022-08-26T04:22:52.801Z,97300.25
2022-08-26T04:25:55.580Z,97304.34
2022-08-26T04:28:58.515Z,97291.94
2022-08-26T04:32:04.159Z,97292.63
2022-08-26T04:35:07.993Z,97294.38
2022-08-26T04:38:12.212Z,97294.72
2022-08-26T04:41:17.013Z,97295.63
2022-08-26T04:44:19.917Z,97302.38
2022-08-26T04:47:30.340Z,97313.97
2022-08-26T04:50:35.073Z,97311.63
2022-08-26T04:53:38.657Z,97325.97
2022-08-26T04:56:45.081Z,97330.31
2022-08-26T04:59:47.979Z,97333.41
2022-08-26T05:02:53.991Z,97346.44
2022-08-26T05:05:57.301Z,97338.22
2022-08-26T05:09:00.231Z,97336.91
2022-08-26T05:12:05.675Z,97332.75
2022-08-26T05:15:10.396Z,97332.75
2022-08-26T05:18:16.479Z,97334.75
2022-08-26T05:21:21.249Z,97337.16
2022-08-26T05:24:24.360Z,97334.72
2022-08-26T05:27:27.166Z,97328.34
2022-08-26T05:30:31.455Z,97331.94
2022-08-26T05:33:35.623Z,97345.41
2022-08-26T05:36:38.985Z,97339.25
2022-08-26T05:39:43.517Z,97335.44
2022-08-26T05:42:53.985Z,97325.41
2022-08-26T05:45:57.317Z,97330.19
2022-08-26T05:49:01.686Z,97317.88
2022-08-26T05:52:05.052Z,97331.31
2022-08-26T05:55:08.488Z,97327.94
2022-08-26T05:58:11.339Z,97322.69
2022-08-26T06:01:17.239Z,97314.09
2022-08-26T06:04:21.793Z,97303.31
2022-08-26T06:07:44.905Z,97291.22
2022-08-26T06:10:50.005Z,97271.88
2022-08-26T06:13:57.099Z,97269.06
2022-08-26T06:17:03.051Z,97268.44
2022-08-26T06:20:08.315Z,97258.28
2022-08-26T06:23:29.665Z,97249.25
2022-08-26T06:26:33.203Z,97244.41
2022-08-26T06:29:38.551Z,97229.09
2022-08-26T06:32:41.542Z,97222.31
2022-08-26T06:35:46.836Z,97216.72
2022-08-26T06:38:51.977Z,97214.66
2022-08-26T06:41:56.196Z,97197.69
2022-08-26T06:45:01.527Z,97191.88
2022-08-26T06:48:06.641Z,97195.28
2022-08-26T06:51:13.887Z,97192.78
2022-08-26T06:54:16.672Z,97178.44
2022-08-26T06:57:19.386Z,97164.84
2022-08-26T07:00:23.120Z,97160.09
2022-08-26T07:03:25.958Z,97158.22
2022-08-26T07:06:30.850Z,97151.75
2022-08-26T07:09:35.428Z,97145.34
2022-08-26T07:12:39.943Z,97144.81
2022-08-26T07:15:44.106Z,97149.66
2022-08-26T07:18:48.647Z,97141.69
2022-08-26T07:21:54.109Z,97137.97
2022-08-26T07:24:58.397Z,97129.47
2022-08-26T07:28:02.550Z,97126.81
2022-08-26T07:31:07.438Z,97134.91
2022-08-26T07:34:13.926Z,97130.13
2022-08-26T07:37:18.662Z,97131.06
2022-08-26T07:40:23.706Z,97130.88
2022-08-26T07:43:26.615Z,97124.56
2022-08-26T07:46:32.312Z,97118.44
2022-08-26T07:49:35.932Z,97113.22
2022-08-26T07:52:40.397Z,97098.50
2022-08-26T07:55:44.106Z,97103.69
2022-08-26T07:58:51.269Z,97112.06
2022-08-26T08:01:54.543Z,97100.31
2022-08-26T08:04:58.973Z,97102.50
2022-08-26T08:08:19.660Z,97100.94
2022-08-26T08:11:31.153Z,97100.97
2022-08-26T08:14:34.622Z,97102.09
2022-08-26T08:17:37.436Z,97097.81
2022-08-26T08:20:44.673Z,97097.31
2022-08-26T08:23:52.176Z,97102.69
2022-08-26T08:26:55.460Z,97091.44
2022-08-26T08:29:59.185Z,97093.84
2022-08-26T08:33:03.282Z,97101.63
2022-08-26T08:36:07.332Z,97094.34
2022-08-26T08:39:13.606Z,97087.06
2022-08-26T08:42:45.663Z,97096.47
2022-08-26T08:45:55.206Z,97087.63
2022-08-26T08:48:59.979Z,97081.16
2022-08-26T08:52:07.934Z,97078.41
2022-08-26T08:55:18.191Z,97091.25
2022-08-26T08:58:25.755Z,97094.44
2022-08-26T09:01:43.186Z,97097.38
2022-08-26T09:05:04.617Z,97103.03
2022-08-26T09:08:12.852Z,97109.97
2022-08-26T09:11:18.734Z,97105.13
2022-08-26T09:14:21.615Z,97106.47
2022-08-26T09:17:34.146Z,97098.16
2022-08-26T09:20:47.600Z,97087.28
2022-08-26T09:23:53.097Z,97096.38
2022-08-26T09:26:59.057Z,97100.69
2022-08-26T09:30:02.061Z,97097.53
2022-08-26T09:33:10.840Z,97084.69
2022-08-26T09:36:22.902Z,97091.72
2022-08-26T09:39:33.174Z,97082.59
2022-08-26T09:42:37.426Z,97079.63
2022-08-26T09:45:50.857Z,97080.47
2022-08-26T09:48:56.291Z,97071.84
2022-08-26T09:52:22.429Z,97069.72
2022-08-26T09:55:25.423Z,97057.09
2022-08-26T09:58:38.324Z,97057.31
2022-08-26T10:01:42.845Z,97058.09
2022-08-26T10:04:54.211Z,97061.59
2022-08-26T10:07:58.223Z,97050.59
2022-08-26T10:11:05.014Z,97052.22
2022-08-26T10:14:16.775Z,97040.09
2022-08-26T10:17:26.643Z,97021.50
2022-08-26T10:20:37.125Z,97019.91
2022-08-26T10:23:43.600Z,97008.31
2022-08-26T10:27:00.844Z,97006.19
2022-08-26T10:30:08.620Z,96999.16
2022-08-26T10:33:15.631Z,97016.34
2022-08-26T10:37:05.123Z,97006.56
2022-08-26T10:40:09.283Z,96996.72
2022-08-26T10:43:17.042Z,97017.91
2022-08-26T10:46:27.147Z,97026.41
2022-08-26T10:49:30.314Z,97030.84
2022-08-26T10:52:52.549Z,97027.47
2022-08-26T10:56:02.657Z,97024.75
2022-08-26T10:59:19.815Z,97039.00
2022-08-26T11:02:33.643Z,97038.81
2022-08-26T11:05:37.003Z,97053.88
2022-08-26T11:08:47.685Z,97047.25
2022-08-26T11:11:55.906Z,97039.38
2022-08-26T11:15:00.630Z,97027.94
2022-08-26T11:18:08.252Z,97032.34
2022-08-26T11:21:49.571Z,97024.16
2022-08-26T11:25:06.861Z,97018.41
2022-08-26T11:28:36.503Z,97022.59
2022-08-26T11:31:56.552Z,97020.22
2022-08-26T11:35:04.924Z,97032.34
2022-08-26T11:38:18.285Z,97031.28
2022-08-26T11:41:29.161Z,97045.78
2022-08-26T11:44:40.628Z,97054.50
2022-08-26T11:47:43.513Z,97051.00
2022-08-26T11:50:56.063Z,97036.63
2022-08-26T11:54:13.241Z,97036.97
2022-08-26T11:57:16.167Z,97035.53
2022-08-26T12:00:22.428Z,97064.16
2022-08-26T12:03:31.894Z,96988.94
2022-08-26T12:06:45.239Z,96932.56
2022-08-26T12:09:56.402Z,96938.56
2022-08-26T12:13:01.649Z,96922.66
2022-08-26T12:16:04.884Z,96920.56
2022-08-26T12:19:22.703Z,96925.69
2022-08-26T12:22:36.089Z,96940.81
2022-08-26T12:25:39.406Z,96951.88
2022-08-26T12:28:46.902Z,96931.78
2022-08-26T12:31:49.844Z,96939.00
2022-08-26T12:34:52.914Z,96932.84
2022-08-26T12:37:57.630Z,96929.34
2022-08-26T12:41:00.717Z,96931.22
2022-08-26T12:44:03.892Z,96933.09
2022-08-26T12:47:11.130Z,96920.47
2022-08-26T12:50:19.658Z,96922.59
2022-08-26T12:53:26.430Z,96926.09
2022-08-26T12:56:36.611Z,96940.19
2022-08-26T12:59:40.394Z,96961.66
2022-08-26T13:02:43.293Z,96958.44
2022-08-26T13:05:46.534Z,96958.38
2022-08-26T13:08:53.297Z,96960.50
2022-08-26T13:12:02.232Z,96967.22
2022-08-26T13:15:07.015Z,96984.56
2022-08-26T13:18:09.817Z,96989.84
2022-08-26T13:21:17.470Z,96999.25
2022-08-26T13:24:25.923Z,97012.47
2022-08-26T13:27:29.641Z,96999.63
2022-08-26T13:30:32.809Z,97011.97
2022-08-26T13:33:35.922Z,97033.41
2022-08-26T13:36:40.350Z,97053.94
2022-08-26T13:39:45.012Z,97057.25
2022-08-26T13:42:49.840Z,97061.78
2022-08-26T13:45:53.952Z,97048.88
2022-08-26T13:48:59.129Z,97063.34
2022-08-26T13:52:03.854Z,97059.59
2022-08-26T13:55:09.195Z,97065.00
2022-08-26T13:58:13.932Z,97072.00
2022-08-26T14:01:18.386Z,97072.00
2022-08-26T14:04:27.131Z,97044.03
2022-08-26T14:07:30.341Z,97011.59
2022-08-26T14:10:34.908Z,97000.56
2022-08-26T14:13:38.140Z,96987.75
2022-08-26T14:16:59.830Z,96987.69
2022-08-26T14:20:04.536Z,96991.16
2022-08-26T14:23:13.901Z,96992.78
2022-08-26T14:26:29.177Z,97004.78
2022-08-26T14:29:33.071Z,97030.00
2022-08-26T14:32:36.901Z,97030.00
2022-08-26T14:35:47.998Z,97031.63
2022-08-26T14:38:51.944Z,97035.34
2022-08-26T14:41:57.862Z,97047.41
2022-08-26T14:45:03.587Z,97062.16
2022-08-26T14:48:07.639Z,97066.72
2022-08-26T14:51:10.555Z,97077.44
2022-08-26T14:54:14.687Z,97107.00
2022-08-26T14:57:18.933Z,97118.50
2022-08-26T15:00:22.170Z,97122.25
2022-08-26T15:03:24.943Z,97132.19
2022-08-26T15:06:28.514Z,97122.31
2022-08-26T15:09:34.142Z,97123.94
2022-08-26T15:12:38.491Z,97105.72
2022-08-26T15:15:41.283Z,97082.97
2022-08-26T15:18:44.149Z,97080.06
2022-08-26T15:21:47.546Z,97049.50
2022-08-26T15:24:51.772Z,97052.44
2022-08-26T15:27:57.883Z,97040.59
2022-08-26T15:31:00.950Z,97021.56
2022-08-26T15:34:06.943Z,97001.25
2022-08-26T15:37:09.781Z,96988.91
2022-08-26T15:40:13.142Z,96992.69
2022-08-26T15:43:28.144Z,96981.94
2022-08-26T15:46:32.079Z,96979.53
2022-08-26T15:49:34.958Z,96955.66
2022-08-26T15:52:39.436Z,96969.06
2022-08-26T15:55:42.189Z,96968.28
2022-08-26T15:58:46.824Z,96986.00
2022-08-26T16:01:50.637Z,96980.09
2022-08-26T16:04:53.504Z,96985.19
2022-08-26T16:07:57.821Z,96971.22
2022-08-26T16:11:03.513Z,96975.78
2022-08-26T16:14:08.427Z,96974.19
2022-08-26T16:17:11.554Z,96978.19
2022-08-26T16:20:14.292Z,96982.78
2022-08-26T16:23:17.493Z,96979.00
2022-08-26T16:26:24.172Z,96969.09
2022-08-26T16:29:28.610Z,96966.97
2022-08-26T16:32:31.455Z,97000.50
2022-08-26T16:35:34.343Z,97006.69
2022-08-26T16:38:38.663Z,97004.03
2022-08-26T16:41:41.876Z,96987.09
2022-08-26T16:44:46.518Z,96978.81
2022-08-26T16:47:50.354Z,96982.56
2022-08-26T16:50:55.820Z,96990.81
2022-08-26T16:53:59.820Z,97010.38
2022-08-26T16:57:05.625Z,97017.13
2022-08-26T17:00:14.761Z,96995.41
2022-08-26T17:03:18.512Z,96986.84
2022-08-26T17:06:21.413Z,96980.91
2022-08-26T17:09:24.999Z,96967.00
2022-08-26T17:12:28.403Z,96960.53
2022-08-26T17:15:32.978Z,96965.06
2022-08-26T17:18:37.015Z,96986.22
2022-08-26T17:21:40.734Z,97006.22
2022-08-26T17:24:44.201Z,97031.63
2022-08-26T17:27:47.206Z,97053.09
2022-08-26T17:30:53.843Z,97064.38
2022-08-26T17:33:56.811Z,97074.78
2022-08-26T17:37:01.819Z,97070.25
2022-08-26T17:40:07.392Z,97050.94
2022-08-26T17:43:12.430Z,97042.56
2022-08-26T17:46:22.970Z,97037.56
2022-08-26T17:49:27.392Z,97029.03
2022-08-26T17:52:31.451Z,97023.59
2022-08-26T17:55:37.465Z,97027.06
2022-08-26T17:58:48.216Z,97061.03
2022-08-26T18:01:59.054Z,97071.84
2022-08-26T18:05:01.863Z,97065.97
2022-08-26T18:08:05.417Z,97054.31
2022-08-26T18:11:10.610Z,97061.13
2022-08-26T18:14:13.756Z,97057.88
2022-08-26T18:17:19.447Z,97058.13
2022-08-26T18:20:22.421Z,97061.13
2022-08-26T18:23:26.733Z,97100.56
2022-08-26T18:26:33.965Z,97119.03
2022-08-26T18:29:36.762Z,97138.91
2022-08-26T18:32:50.623Z,97156.31
2022-08-26T18:35:53.810Z,97166.06
2022-08-26T18:38:57.817Z,97182.25
2022-08-26T18:42:00.568Z,97188.25
2022-08-26T18:45:03.657Z,97177.03
2022-08-26T18:48:09.070Z,97182.22
2022-08-26T18:51:19.644Z,97175.91
2022-08-26T18:54:22.761Z,97187.19
2022-08-26T18:57:25.838Z,97182.25
2022-08-26T19:00:28.753Z,97194.41
2022-08-26T19:03:33.689Z,97207.78
2022-08-26T19:06:38.975Z,97230.63
2022-08-26T19:09:41.906Z,97224.97
2022-08-26T19:12:45.695Z,97236.19
2022-08-26T19:15:57.106Z,97245.09
2022-08-26T19:19:06.674Z,97248.63
2022-08-26T19:22:09.634Z,97248.13
2022-08-26T19:25:12.668Z,97240.84
2022-08-26T19:28:17.760Z,97249.41
2022-08-26T19:31:23.538Z,97254.91
2022-08-26T19:34:28.060Z,97251.28
2022-08-26T19:37:30.900Z,97247.50
2022-08-26T19:40:36.304Z,97247.16
2022-08-26T19:43:39.243Z,97256.41
2022-08-26T19:46:44.068Z,97261.69
2022-08-26T19:49:48.318Z,97265.00
2022-08-26T19:52:51.088Z,97263.41
2022-08-26T19:55:54.781Z,97278.03
2022-08-26T19:58:58.175Z,97292.66
2022-08-26T20:02:02.193Z,97306.41
2022-08-26T20:05:09.343Z,97302.69
2022-08-26T20:08:21.988Z,97312.59
2022-08-26T20:11:29.451Z,97317.56
2022-08-26T20:14:32.724Z,97328.31
2022-08-26T20:17:36.023Z,97324.03
2022-08-26T20:20:57.635Z,97324.59
2022-08-26T20:24:07.214Z,97320.34
2022-08-26T20:27:10.170Z,97325.41
2022-08-26T20:30:14.807Z,97320.22
2022-08-26T20:33:17.979Z,97318.91
2022-08-26T20:36:24.143Z,97315.34
2022-08-26T20:39:29.045Z,97319.81
2022-08-26T20:42:32.876Z,97326.28
2022-08-26T20:45:36.019Z,97328.16
2022-08-26T20:48:38.945Z,97339.53
2022-08-26T20:51:43.863Z,97336.91
2022-08-26T20:54:46.593Z,97335.97
2022-08-26T20:57:49.734Z,97348.13
2022-08-26T21:00:52.569Z,97342.16
2022-08-26T21:03:57.874Z,97329.94
2022-08-26T21:07:02.068Z,97320.88
2022-08-26T21:10:05.291Z,97316.41
2022-08-26T21:13:08.730Z,97320.72
2022-08-26T21:16:12.310Z,97319.94
2022-08-26T21:19:18.006Z,97305.03
2022-08-26T21:22:22.461Z,97303.22
2022-08-26T21:25:25.557Z,97318.13
2022-08-26T21:28:28.330Z,97328.72
2022-08-26T21:31:32.074Z,97333.63
2022-08-26T21:34:35.200Z,97335.69
2022-08-26T21:37:39.377Z,97344.31
2022-08-26T21:40:42.168Z,97338.63
2022-08-26T21:43:45.541Z,97342.97
2022-08-26T21:46:49.855Z,97349.69
2022-08-26T21:49:52.797Z,97357.03
2022-08-26T21:52:56.862Z,97371.75
2022-08-26T21:55:59.779Z,97369.41
2022-08-26T21:59:03.067Z,97366.72
2022-08-26T22:02:07.286Z,97366.25
2022-08-26T22:05:10.607Z,97365.38
2022-08-26T22:08:15.593Z,97361.31
2022-08-26T22:11:19.021Z,97358.84
2022-08-26T22:14:25.371Z,97358.47
2022-08-26T22:17:30.251Z,97361.63
2022-08-26T22:20:33.482Z,97361.31
2022-08-26T22:23:39.106Z,97348.00
2022-08-26T22:26:41.981Z,97346.72
2022-08-26T22:29:46.600Z,97338.81
2022-08-26T22:32:49.387Z,97338.00
2022-08-26T22:35:53.874Z,97330.44
2022-08-26T22:38:58.860Z,97329.53
2022-08-26T22:42:01.693Z,97332.28
2022-08-26T22:45:05.944Z,97333.00
2022-08-26T22:48:08.954Z,97331.91
2022-08-26T22:51:12.333Z,97310.50
2022-08-26T22:54:17.431Z,97312.69
2022-08-26T22:57:20.889Z,97316.72
2022-08-26T23:00:32.039Z,97323.13
2022-08-26T23:03:36.168Z,97316.97
2022-08-26T23:06:43.070Z,97319.78
2022-08-26T23:09:47.293Z,97321.72
2022-08-26T23:12:50.477Z,97341.69
2022-08-26T23:16:01.577Z,97356.72
2022-08-26T23:19:05.038Z,97370.41
2022-08-26T23:22:08.127Z,97378.38
2022-08-26T23:25:13.204Z,97371.25
2022-08-26T23:28:15.963Z,97376.75
2022-08-26T23:31:18.785Z,97374.00
2022-08-26T23:34:44.723Z,97364.03
2022-08-26T23:37:51.324Z,97358.69
2022-08-26T23:40:55.698Z,97367.53
2022-08-26T23:44:02.818Z,97348.50
2022-08-26T23:47:07.276Z,97353.91
2022-08-26T23:50:10.780Z,97344.34
2022-08-26T23:53:19.342Z,97333.78
2022-08-26T23:56:23.451Z,97334.13
2022-08-26T23:59:26.602Z,97314.00
